Terminal Aerodrome Forecast
Issued by NWS

Home | Current Version | Previous Version | Text Only | Print | Product List | Glossary On
Versions: 1 2 3 4 5 6 7 8 9 10 11 12 13 14 15 16 17 18 19 20 21 22 23 24 25 26
231
FTUS43 KLSX 271903 AAB
TAFCPS
TAF AMD
KCPS 271903Z 2719/2818 11005KT P6SM VCTS BKN040CB
      TEMPO 2719/2721 VRB15G30KT 2SM TSRA OVC020CB
     FM272100 14007KT P6SM VCTS BKN040CB
      TEMPO 2722/2724 VRB20G40KT 2SM TSRA OVC020CB
     FM280300 18007KT P6SM OVC080
     FM281000 25005KT 5SM BR BKN020
     FM281600 29007KT P6SM BKN035=

USA.gov is the U.S. government's official web portal to all federal, state and local government web resources and services.